createdAt,value
2017-05-12T00:00:34.840Z,99211.20
2017-05-12T00:03:01.307Z,99210.83
2017-05-12T00:05:27.634Z,99215.02
2017-05-12T00:07:53.992Z,99215.56
2017-05-12T00:10:20.298Z,99211.54
2017-05-12T00:12:46.649Z,99217.54
2017-05-12T00:15:12.971Z,99208.52
2017-05-12T00:17:39.303Z,99211.20
2017-05-12T00:20:05.613Z,99219.55
2017-05-12T00:22:31.943Z,99216.14
2017-05-12T00:24:58.291Z,99217.63
2017-05-12T00:27:24.610Z,99220.80
2017-05-12T00:29:50.942Z,99217.61
2017-05-12T00:32:17.279Z,99218.44
2017-05-12T00:34:43.625Z,99218.12
2017-05-12T00:37:09.960Z,99227.52
2017-05-12T00:39:36.282Z,99230.73
2017-05-12T00:42:02.623Z,99226.06
2017-05-12T00:44:28.958Z,99225.09
2017-05-12T00:46:55.297Z,99228.18
2017-05-12T00:49:21.623Z,99228.80
2017-05-12T00:51:47.937Z,99228.88
2017-05-12T00:54:14.304Z,99234.95
2017-05-12T00:56:40.609Z,99235.89
2017-05-12T00:59:07.073Z,99237.70
2017-05-12T01:01:33.391Z,99240.97
2017-05-12T01:03:59.721Z,99235.71
2017-05-12T01:06:26.053Z,99240.69
2017-05-12T01:08:52.422Z,99236.35
2017-05-12T01:11:18.760Z,99235.16
2017-05-12T01:13:45.656Z,99229.89
2017-05-12T01:16:12.527Z,99231.61
2017-05-12T01:18:38.886Z,99231.09
2017-05-12T01:21:05.378Z,99232.83
2017-05-12T01:23:31.723Z,99227.21
2017-05-12T01:25:58.046Z,99228.33
2017-05-12T01:28:24.382Z,99228.63
2017-05-12T01:30:50.760Z,99224.27
2017-05-12T01:33:17.107Z,99224.88
2017-05-12T01:35:43.507Z,99220.98
2017-05-12T01:38:09.870Z,99229.23
2017-05-12T01:40:36.223Z,99220.72
2017-05-12T01:43:02.635Z,99218.64
2017-05-12T01:45:28.970Z,99215.80
2017-05-12T01:47:55.319Z,99222.22
2017-05-12T01:50:21.662Z,99219.20
2017-05-12T01:52:48.003Z,99223.03
2017-05-12T01:55:14.363Z,99221.94
2017-05-12T01:57:40.760Z,99216.10
2017-05-12T02:00:07.129Z,99215.19
2017-05-12T02:02:33.458Z,99219.36
2017-05-12T02:04:59.839Z,99223.82
2017-05-12T02:07:26.198Z,99224.71
2017-05-12T02:09:52.539Z,99222.09
2017-05-12T02:12:18.890Z,99217.05
2017-05-12T02:14:45.334Z,99218.81
2017-05-12T02:17:11.681Z,99219.97
2017-05-12T02:19:38.026Z,99221.45
2017-05-12T02:22:04.375Z,99218.96
2017-05-12T02:24:30.722Z,99214.02
2017-05-12T02:26:57.077Z,99215.66
2017-05-12T02:29:23.448Z,99214.13
2017-05-12T02:31:49.796Z,99215.80
2017-05-12T02:34:16.156Z,99212.29
2017-05-12T02:36:42.516Z,99219.73
2017-05-12T02:39:08.887Z,99218.27
2017-05-12T02:41:35.236Z,99214.14
2017-05-12T02:44:01.597Z,99213.12
2017-05-12T02:46:27.926Z,99218.55
2017-05-12T02:48:54.391Z,99220.14
2017-05-12T02:51:20.735Z,99220.93
2017-05-12T02:53:47.465Z,99214.16
2017-05-12T02:56:13.822Z,99211.78
2017-05-12T02:58:40.190Z,99219.86
2017-05-12T03:01:06.514Z,99214.45
2017-05-12T03:03:32.861Z,99214.45
2017-05-12T03:05:59.173Z,99219.08
2017-05-12T03:08:25.515Z,99213.84
2017-05-12T03:10:51.870Z,99214.09
2017-05-12T03:13:18.225Z,99215.02
2017-05-12T03:15:44.560Z,99217.58
2017-05-12T03:18:10.909Z,99213.58
2017-05-12T03:20:37.632Z,99215.81
2017-05-12T03:23:04.024Z,99209.58
2017-05-12T03:25:30.381Z,99207.39
2017-05-12T03:27:56.741Z,99214.00
2017-05-12T03:30:23.126Z,99217.15
2017-05-12T03:32:49.486Z,99213.98
2017-05-12T03:35:15.836Z,99218.16
2017-05-12T03:37:42.166Z,99216.56
2017-05-12T03:40:08.502Z,99218.69
2017-05-12T03:42:34.850Z,99223.61
2017-05-12T03:45:01.190Z,99228.09
2017-05-12T03:47:27.510Z,99221.30
2017-05-12T03:49:53.863Z,99227.55
2017-05-12T03:52:20.228Z,99223.77
2017-05-12T03:54:46.583Z,99229.42
2017-05-12T03:57:12.953Z,99233.03
2017-05-12T03:59:39.316Z,99233.95
2017-05-12T04:02:05.673Z,99233.59
2017-05-12T04:04:32.008Z,99240.22
2017-05-12T04:06:58.352Z,99235.28
2017-05-12T04:09:24.737Z,99243.83
2017-05-12T04:11:51.153Z,99241.30
2017-05-12T04:14:17.487Z,99246.78
2017-05-12T04:19:12.827Z,99250.14
2017-05-12T04:21:39.183Z,99244.02
2017-05-12T04:24:05.519Z,99248.56
2017-05-12T04:26:31.892Z,99249.84
2017-05-12T04:28:58.227Z,99251.70
2017-05-12T04:31:24.574Z,99254.05
2017-05-12T04:33:50.914Z,99253.02
2017-05-12T04:36:17.277Z,99251.44
2017-05-12T04:38:43.609Z,99256.17
2017-05-12T04:41:09.958Z,99254.89
2017-05-12T04:43:36.308Z,99252.53
2017-05-12T04:46:02.651Z,99262.95
2017-05-12T04:48:29.009Z,99263.89
2017-05-12T04:50:55.367Z,99264.11
2017-05-12T04:53:21.699Z,99262.26
2017-05-12T04:55:48.052Z,99264.22
2017-05-12T04:58:14.430Z,99265.35
2017-05-12T05:00:40.766Z,99267.48
2017-05-12T05:03:07.102Z,99269.45
2017-05-12T05:05:33.435Z,99270.09
2017-05-12T05:07:59.772Z,99278.03
2017-05-12T05:10:26.172Z,99278.63
2017-05-12T05:12:52.557Z,99273.83
2017-05-12T05:15:18.872Z,99275.31
2017-05-12T05:17:45.207Z,99276.05
2017-05-12T05:20:11.573Z,99281.45
2017-05-12T05:22:37.892Z,99284.85
2017-05-12T05:25:04.233Z,99281.97
2017-05-12T05:27:30.575Z,99285.61
2017-05-12T05:29:56.973Z,99285.86
2017-05-12T05:32:23.342Z,99292.42
2017-05-12T05:34:49.688Z,99296.20
2017-05-12T05:37:16.064Z,99299.41
2017-05-12T05:39:42.396Z,99300.73
2017-05-12T05:42:08.761Z,99302.06
2017-05-12T05:44:35.114Z,99306.66
2017-05-12T05:47:01.473Z,99308.57
2017-05-12T05:49:27.825Z,99322.03
2017-05-12T05:51:54.167Z,99322.70
2017-05-12T05:54:20.509Z,99318.17
2017-05-12T05:56:46.867Z,99317.59
2017-05-12T05:59:13.217Z,99319.67
2017-05-12T06:01:39.594Z,99314.50
2017-05-12T06:04:05.909Z,99319.61
2017-05-12T06:06:32.273Z,99319.62
2017-05-12T06:08:58.612Z,99321.69
2017-05-12T06:11:24.966Z,99327.19
2017-05-12T06:13:51.327Z,99329.33
2017-05-12T06:16:17.662Z,99331.75
2017-05-12T06:18:43.998Z,99329.22
2017-05-12T06:21:10.369Z,99333.23
2017-05-12T06:23:36.692Z,99334.33
2017-05-12T06:26:03.045Z,99334.10
2017-05-12T06:28:29.390Z,99337.18
2017-05-12T06:30:55.733Z,99329.94
2017-05-12T06:33:22.079Z,99332.22
2017-05-12T06:35:48.457Z,99338.67
2017-05-12T06:38:14.795Z,99336.53
2017-05-12T06:40:41.129Z,99344.86
2017-05-12T06:43:07.451Z,99348.42
2017-05-12T06:45:33.783Z,99351.05
2017-05-12T06:48:00.129Z,99361.08
2017-05-12T06:50:26.468Z,99364.86
2017-05-12T06:52:52.829Z,99367.69
2017-05-12T06:55:19.220Z,99363.84
2017-05-12T06:57:45.565Z,99371.84
2017-05-12T07:00:11.936Z,99366.83
2017-05-12T07:02:38.291Z,99374.94
2017-05-12T07:05:04.643Z,99374.23
2017-05-12T07:07:30.987Z,99377.38
2017-05-12T07:09:57.348Z,99378.44
2017-05-12T07:12:23.694Z,99385.33
2017-05-12T07:14:50.025Z,99383.41
2017-05-12T07:17:16.391Z,99383.77
2017-05-12T07:19:42.754Z,99383.91
2017-05-12T07:22:09.102Z,99381.08
2017-05-12T07:24:35.442Z,99388.00
2017-05-12T07:27:01.780Z,99390.51
2017-05-12T07:29:28.156Z,99394.02
2017-05-12T07:31:54.491Z,99390.62
2017-05-12T07:34:20.824Z,99394.24
2017-05-12T07:36:47.186Z,99400.47
2017-05-12T07:39:13.566Z,99395.19
2017-05-12T07:41:39.915Z,99401.00
2017-05-12T07:44:06.285Z,99398.27
2017-05-12T07:46:32.653Z,99395.67
2017-05-12T07:48:58.963Z,99403.66
2017-05-12T07:51:25.318Z,99403.25
2017-05-12T07:53:51.663Z,99403.13
2017-05-12T07:56:18.006Z,99404.43
2017-05-12T07:58:44.338Z,99402.48
2017-05-12T08:01:10.721Z,99408.47
2017-05-12T08:03:37.061Z,99413.88
2017-05-12T08:06:03.392Z,99416.17
2017-05-12T08:08:29.741Z,99415.52
2017-05-12T08:10:56.185Z,99416.02
2017-05-12T08:13:22.528Z,99415.42
2017-05-12T08:15:48.874Z,99418.86
2017-05-12T08:18:15.244Z,99423.03
2017-05-12T08:20:41.574Z,99424.53
2017-05-12T08:23:07.891Z,99426.05
2017-05-12T08:25:34.618Z,99432.59
2017-05-12T08:28:00.980Z,99434.19
2017-05-12T08:30:27.313Z,99432.26
2017-05-12T08:32:53.677Z,99434.12
2017-05-12T08:35:20.039Z,99435.98
2017-05-12T08:37:46.411Z,99438.17
2017-05-12T08:40:12.757Z,99437.06
2017-05-12T08:42:39.103Z,99442.41
2017-05-12T08:45:05.489Z,99434.28
2017-05-12T08:47:31.957Z,99446.16
2017-05-12T08:49:58.331Z,99445.81
2017-05-12T08:52:24.663Z,99443.70
2017-05-12T08:54:51.010Z,99442.88
2017-05-12T08:57:17.355Z,99444.47
2017-05-12T08:59:43.697Z,99441.88
2017-05-12T09:02:10.044Z,99448.36
2017-05-12T09:04:36.403Z,99441.00
2017-05-12T09:07:02.749Z,99430.42
2017-05-12T09:09:29.118Z,99435.63
2017-05-12T09:11:55.488Z,99429.83
2017-05-12T09:14:21.828Z,99433.03
2017-05-12T09:16:48.179Z,99431.28
2017-05-12T09:19:14.499Z,99432.76
2017-05-12T09:21:40.848Z,99440.00
2017-05-12T09:24:07.267Z,99439.91
2017-05-12T09:26:33.620Z,99444.08
2017-05-12T09:28:59.954Z,99443.91
2017-05-12T09:31:26.296Z,99446.60
2017-05-12T09:33:52.677Z,99441.58
2017-05-12T09:36:19.006Z,99443.95
2017-05-12T09:38:45.366Z,99441.77
2017-05-12T09:41:11.702Z,99446.42
2017-05-12T09:43:38.057Z,99449.42
2017-05-12T09:46:04.421Z,99449.91
2017-05-12T09:48:30.778Z,99455.09
2017-05-12T09:50:57.122Z,99463.38
2017-05-12T09:53:23.472Z,99457.27
2017-05-12T09:55:49.845Z,99461.92
2017-05-12T09:58:16.191Z,99456.61
2017-05-12T10:00:42.574Z,99456.89
2017-05-12T10:03:08.963Z,99457.32
2017-05-12T10:05:35.332Z,99462.88
2017-05-12T10:08:01.690Z,99458.05
2017-05-12T10:10:28.025Z,99457.98
2017-05-12T10:12:54.347Z,99452.37
2017-05-12T10:15:20.678Z,99448.16
2017-05-12T10:17:47.037Z,99451.91
2017-05-12T10:20:13.370Z,99449.54
2017-05-12T10:22:39.715Z,99443.70
2017-05-12T10:25:06.032Z,99447.30
2017-05-12T10:27:32.377Z,99446.45
2017-05-12T10:29:58.726Z,99446.54
2017-05-12T10:32:25.093Z,99443.95
2017-05-12T10:34:51.418Z,99447.77
2017-05-12T10:37:17.790Z,99448.30
2017-05-12T10:39:44.180Z,99447.56
2017-05-12T10:42:10.563Z,99438.61
2017-05-12T10:44:36.910Z,99433.25
2017-05-12T10:47:03.243Z,99444.83
2017-05-12T10:49:29.579Z,99444.50
2017-05-12T10:51:55.941Z,99437.08
2017-05-12T10:54:22.284Z,99438.84
2017-05-12T10:56:48.726Z,99439.27
2017-05-12T10:59:15.088Z,99440.27
2017-05-12T11:01:41.441Z,99434.77
2017-05-12T11:04:07.791Z,99432.91
2017-05-12T11:06:34.145Z,99431.38
2017-05-12T11:09:00.489Z,99439.14
2017-05-12T11:11:26.842Z,99432.89
2017-05-12T11:13:53.171Z,99437.67
2017-05-12T11:16:19.502Z,99436.08
2017-05-12T11:18:45.831Z,99442.38
2017-05-12T11:21:12.217Z,99436.69
2017-05-12T11:23:38.563Z,99441.64
2017-05-12T11:26:04.891Z,99444.45
2017-05-12T11:28:31.232Z,99443.53
2017-05-12T11:30:57.549Z,99447.77
2017-05-12T11:33:23.904Z,99447.44
2017-05-12T11:35:50.234Z,99460.13
2017-05-12T11:38:16.599Z,99473.09
2017-05-12T11:40:42.947Z,99477.34
2017-05-12T11:43:09.331Z,99485.94
2017-05-12T11:45:35.712Z,99490.77
2017-05-12T11:48:02.080Z,99495.92
2017-05-12T11:50:28.439Z,99500.30
2017-05-12T11:52:54.780Z,99497.02
2017-05-12T11:55:21.143Z,99506.05
2017-05-12T11:57:47.506Z,99517.69
2017-05-12T12:00:13.905Z,99516.78
2017-05-12T12:02:40.261Z,99517.54
2017-05-12T12:05:06.622Z,99514.17
2017-05-12T12:07:33.005Z,99522.22
2017-05-12T12:09:59.360Z,99512.08
2017-05-12T12:12:25.757Z,99517.06
2017-05-12T12:14:52.100Z,99506.46
2017-05-12T12:17:18.448Z,99507.06
2017-05-12T12:19:44.797Z,99506.30
2017-05-12T12:22:11.195Z,99510.48
2017-05-12T12:24:37.527Z,99510.01
2017-05-12T12:27:03.865Z,99511.95
2017-05-12T12:29:30.241Z,99517.38
2017-05-12T12:31:56.649Z,99519.13
2017-05-12T12:34:22.970Z,99513.62
2017-05-12T12:36:49.309Z,99513.69
2017-05-12T12:39:15.712Z,99516.18
2017-05-12T12:41:42.106Z,99524.08
2017-05-12T12:44:08.440Z,99524.59
2017-05-12T12:46:34.777Z,99517.78
2017-05-12T12:49:01.114Z,99517.19
2017-05-12T12:51:27.502Z,99517.45
2017-05-12T12:53:53.847Z,99512.77
2017-05-12T12:56:20.206Z,99513.45
2017-05-12T12:58:46.550Z,99515.19
2017-05-12T13:01:12.921Z,99520.03
2017-05-12T13:03:39.278Z,99523.77
2017-05-12T13:06:05.712Z,99525.17
2017-05-12T13:08:32.073Z,99527.69
2017-05-12T13:10:58.432Z,99527.69
2017-05-12T13:13:24.763Z,99522.58
2017-05-12T13:15:51.087Z,99522.82
2017-05-12T13:18:17.444Z,99521.80
2017-05-12T13:20:43.778Z,99522.96
2017-05-12T13:23:10.110Z,99524.47
2017-05-12T13:25:36.445Z,99520.80
2017-05-12T13:28:02.784Z,99513.91
2017-05-12T13:30:29.127Z,99507.60
2017-05-12T13:32:55.496Z,99497.45
2017-05-12T13:35:21.866Z,99501.62
2017-05-12T13:37:48.281Z,99496.75
2017-05-12T13:40:16.815Z,99484.27
2017-05-12T13:42:43.189Z,99481.20
2017-05-12T13:45:09.525Z,99478.83
2017-05-12T13:47:35.859Z,99473.30
2017-05-12T13:50:02.229Z,99475.73
2017-05-12T13:52:28.605Z,99475.92
2017-05-12T13:54:54.961Z,99475.42
2017-05-12T13:57:21.307Z,99469.59
2017-05-12T13:59:47.640Z,99466.94
2017-05-12T14:02:13.970Z,99468.25
2017-05-12T14:04:40.336Z,99459.45
2017-05-12T14:07:06.674Z,99465.13
2017-05-12T14:09:33.002Z,99461.20
2017-05-12T14:11:59.356Z,99468.14
2017-05-12T14:14:25.687Z,99460.71
2017-05-12T14:16:52.036Z,99461.84
2017-05-12T14:19:18.381Z,99465.17
2017-05-12T14:21:45.464Z,99463.30
2017-05-12T14:24:11.841Z,99456.25
2017-05-12T14:26:38.184Z,99453.08
2017-05-12T14:29:04.532Z,99453.96
2017-05-12T14:31:30.906Z,99448.12
2017-05-12T14:33:57.235Z,99451.33
2017-05-12T14:36:23.547Z,99453.77
2017-05-12T14:38:49.928Z,99455.71
2017-05-12T14:41:16.317Z,99448.26
2017-05-12T14:43:42.650Z,99443.98
2017-05-12T14:46:09.017Z,99450.64
2017-05-12T14:48:35.404Z,99452.73
2017-05-12T14:51:01.752Z,99452.56
2017-05-12T14:53:28.116Z,99460.83
2017-05-12T14:55:54.506Z,99450.19
2017-05-12T14:58:20.923Z,99456.28
2017-05-12T15:00:47.271Z,99460.37
2017-05-12T15:03:13.628Z,99459.47
2017-05-12T15:05:40.010Z,99462.53
2017-05-12T15:08:06.347Z,99464.58
2017-05-12T15:10:32.667Z,99458.45
2017-05-12T15:12:59.056Z,99457.76
2017-05-12T15:15:25.422Z,99459.67
2017-05-12T15:17:51.771Z,99461.75
2017-05-12T15:20:18.398Z,99466.20
2017-05-12T15:22:45.336Z,99468.92
2017-05-12T15:25:11.684Z,99469.80
2017-05-12T15:27:38.068Z,99461.81
2017-05-12T15:30:04.394Z,99469.59
2017-05-12T15:32:31.254Z,99469.47
2017-05-12T15:34:57.554Z,99469.31
2017-05-12T15:37:23.931Z,99475.55
2017-05-12T15:39:50.260Z,99472.73
2017-05-12T15:42:16.614Z,99474.95
2017-05-12T15:44:42.981Z,99479.31
2017-05-12T15:47:09.316Z,99476.81
2017-05-12T15:49:35.671Z,99478.05
2017-05-12T15:52:02.058Z,99476.44
2017-05-12T15:54:28.422Z,99474.59
2017-05-12T15:56:54.729Z,99469.34
2017-05-12T15:59:21.085Z,99471.68
2017-05-12T16:01:47.429Z,99475.94
2017-05-12T16:04:13.763Z,99473.91
2017-05-12T16:06:40.089Z,99479.52
2017-05-12T16:09:06.401Z,99488.05
2017-05-12T16:11:32.743Z,99482.42
2017-05-12T16:13:59.094Z,99491.75
2017-05-12T16:16:25.433Z,99492.01
2017-05-12T16:18:51.747Z,99501.81
2017-05-12T16:21:18.132Z,99495.34
2017-05-12T16:23:44.481Z,99494.20
2017-05-12T16:26:10.828Z,99490.60
2017-05-12T16:28:37.204Z,99484.44
2017-05-12T16:31:03.542Z,99484.85
2017-05-12T16:33:29.885Z,99483.66
2017-05-12T16:35:57.130Z,99483.66
2017-05-12T16:38:23.470Z,99479.61
2017-05-12T16:40:49.844Z,99477.48
2017-05-12T16:43:16.159Z,99475.71
2017-05-12T16:45:42.511Z,99474.46
2017-05-12T16:48:08.862Z,99476.52
2017-05-12T16:50:35.235Z,99478.91
2017-05-12T16:53:01.596Z,99477.89
2017-05-12T16:55:27.910Z,99480.47
2017-05-12T16:57:54.244Z,99489.58
2017-05-12T17:00:20.663Z,99490.42
2017-05-12T17:02:47.022Z,99493.19
2017-05-12T17:05:13.490Z,99494.61
2017-05-12T17:07:39.822Z,99496.89
2017-05-12T17:10:06.162Z,99504.69
2017-05-12T17:12:32.517Z,99502.25
2017-05-12T17:14:58.873Z,99498.72
2017-05-12T17:17:25.185Z,99505.78
2017-05-12T17:19:51.567Z,99502.69
2017-05-12T17:22:17.906Z,99502.05
2017-05-12T17:24:44.268Z,99506.95
2017-05-12T17:27:10.607Z,99503.72
2017-05-12T17:29:36.948Z,99506.10
2017-05-12T17:32:05.122Z,99507.41
2017-05-12T17:34:32.043Z,99512.76
2017-05-12T17:36:58.835Z,99509.86
2017-05-12T17:39:25.928Z,99511.50
2017-05-12T17:41:52.945Z,99526.13
2017-05-12T17:44:19.378Z,99528.88
2017-05-12T17:46:47.273Z,99536.33
2017-05-12T17:49:15.391Z,99547.33
2017-05-12T17:51:41.753Z,99551.56
2017-05-12T17:54:08.584Z,99548.84
2017-05-12T17:56:34.969Z,99559.34
2017-05-12T17:59:01.997Z,99570.44
2017-05-12T18:01:28.314Z,99571.58
2017-05-12T18:03:55.279Z,99572.84
2017-05-12T18:06:21.631Z,99567.41
2017-05-12T18:08:48.617Z,99563.63
2017-05-12T18:11:15.043Z,99562.53
2017-05-12T18:13:41.730Z,99568.04
2017-05-12T18:16:08.090Z,99576.67
2017-05-12T18:18:34.453Z,99575.63
2017-05-12T18:21:00.814Z,99583.62
2017-05-12T18:23:27.158Z,99583.16
2017-05-12T18:25:53.512Z,99582.36
2017-05-12T18:28:19.880Z,99583.41
2017-05-12T18:30:46.199Z,99585.34
2017-05-12T18:33:12.537Z,99589.55
2017-05-12T18:35:39.278Z,99587.84
2017-05-12T18:38:05.612Z,99595.80
2017-05-12T18:40:31.965Z,99594.00
2017-05-12T18:42:59.157Z,99596.10
2017-05-12T18:45:25.641Z,99597.37
2017-05-12T18:47:52.049Z,99605.75
2017-05-12T18:50:23.796Z,99603.39
2017-05-12T18:52:51.097Z,99608.62
2017-05-12T18:55:18.718Z,99610.43
2017-05-12T18:57:45.654Z,99615.08
2017-05-12T19:00:12.493Z,99609.11
2017-05-12T19:02:38.849Z,99612.21
2017-05-12T19:05:05.376Z,99626.48
2017-05-12T19:07:32.090Z,99633.41
2017-05-12T19:10:05.053Z,99640.61
2017-05-12T19:12:34.483Z,99644.91
2017-05-12T19:15:06.189Z,99647.53
2017-05-12T19:17:37.945Z,99648.50
2017-05-12T19:20:04.298Z,99649.84
2017-05-12T19:22:31.245Z,99655.00
2017-05-12T19:24:58.207Z,99661.29
2017-05-12T19:27:30.941Z,99669.05
2017-05-12T19:29:58.337Z,99665.43
2017-05-12T19:32:24.968Z,99668.45
2017-05-12T19:34:51.582Z,99671.79
2017-05-12T19:37:18.326Z,99686.59
2017-05-12T19:39:50.012Z,99682.13
2017-05-12T19:42:16.768Z,99682.70
2017-05-12T19:44:48.600Z,99696.88
2017-05-12T19:47:15.475Z,99692.52
2017-05-12T19:49:42.374Z,99702.44
2017-05-12T19:52:10.001Z,99705.80
2017-05-12T19:54:36.463Z,99709.51
2017-05-12T19:57:03.142Z,99717.55
2017-05-12T19:59:30.591Z,99724.36
2017-05-12T20:01:58.121Z,99725.83
2017-05-12T20:04:25.057Z,99731.19
2017-05-12T20:06:52.397Z,99738.36
2017-05-12T20:09:19.562Z,99739.32
2017-05-12T20:11:46.078Z,99747.36
2017-05-12T20:14:12.411Z,99754.69
2017-05-12T20:16:38.912Z,99763.36
2017-05-12T20:19:05.507Z,99786.12
2017-05-12T20:21:31.872Z,99783.19
2017-05-12T20:24:05.714Z,99782.37
2017-05-12T20:26:33.125Z,99782.80
2017-05-12T20:29:00.270Z,99787.81
2017-05-12T20:31:27.598Z,99793.84
2017-05-12T20:33:54.037Z,99795.66
2017-05-12T20:36:20.915Z,99791.99
2017-05-12T20:38:48.159Z,99797.17
2017-05-12T20:41:20.581Z,99801.63
2017-05-12T20:43:50.118Z,99807.54
2017-05-12T20:46:19.525Z,99811.99
2017-05-12T20:48:46.521Z,99811.67
2017-05-12T20:51:13.935Z,99819.73
2017-05-12T20:53:47.616Z,99819.73
2017-05-12T20:56:13.957Z,99815.78
2017-05-12T20:58:41.283Z,99818.62
2017-05-12T21:01:13.840Z,99824.70
2017-05-12T21:03:41.183Z,99826.56
2017-05-12T21:06:07.888Z,99826.96
2017-05-12T21:08:39.241Z,99833.08
2017-05-12T21:11:11.267Z,99837.19
2017-05-12T21:13:37.653Z,99841.89
2017-05-12T21:16:11.158Z,99843.43
2017-05-12T21:18:37.694Z,99839.64
2017-05-12T21:21:09.692Z,99839.89
2017-05-12T21:23:37.208Z,99852.31
2017-05-12T21:26:04.386Z,99849.67
2017-05-12T21:28:30.808Z,99852.66
2017-05-12T21:31:03.163Z,99853.22
2017-05-12T21:33:29.589Z,99852.28
2017-05-12T21:35:56.197Z,99854.61
2017-05-12T21:38:28.971Z,99856.26
2017-05-12T21:40:55.832Z,99852.52
2017-05-12T21:43:22.582Z,99849.14
2017-05-12T21:45:48.929Z,99856.86
2017-05-12T21:48:15.262Z,99859.70
2017-05-12T21:50:41.866Z,99859.86
2017-05-12T21:53:09.364Z,99861.48
2017-05-12T21:55:42.942Z,99865.63
2017-05-12T21:58:12.309Z,99865.73
2017-05-12T22:00:43.930Z,99869.01
2017-05-12T22:03:10.470Z,99863.01
2017-05-12T22:05:36.962Z,99865.31
2017-05-12T22:08:03.326Z,99863.28
2017-05-12T22:10:30.632Z,99869.45
2017-05-12T22:12:57.918Z,99878.34
2017-05-12T22:15:29.720Z,99875.84
2017-05-12T22:17:56.564Z,99886.92
2017-05-12T22:20:24.091Z,99886.13
2017-05-12T22:22:51.442Z,99881.95
2017-05-12T22:25:17.830Z,99878.58
2017-05-12T22:27:45.298Z,99882.11
2017-05-12T22:30:12.108Z,99882.82
2017-05-12T22:32:38.556Z,99889.98
2017-05-12T22:35:04.978Z,99881.97
2017-05-12T22:37:31.377Z,99883.34
2017-05-12T22:39:57.868Z,99888.91
2017-05-12T22:42:27.278Z,99894.23
2017-05-12T22:44:58.931Z,99904.19
2017-05-12T22:47:31.166Z,99902.06
2017-05-12T22:50:00.529Z,99905.45
2017-05-12T22:52:26.858Z,99911.45
2017-05-12T22:54:53.619Z,99912.75
2017-05-12T22:57:19.989Z,99928.70
2017-05-12T22:59:47.643Z,99920.48
2017-05-12T23:02:14.395Z,99918.05
2017-05-12T23:04:42.174Z,99917.37
2017-05-12T23:07:09.427Z,99929.34
2017-05-12T23:09:36.819Z,99930.51
2017-05-12T23:12:03.535Z,99931.70
2017-05-12T23:14:29.883Z,99928.47
2017-05-12T23:16:56.544Z,99930.30
2017-05-12T23:19:24.402Z,99936.21
2017-05-12T23:21:56.159Z,99944.22
2017-05-12T23:24:24.362Z,99933.20
2017-05-12T23:26:52.064Z,99927.85
2017-05-12T23:29:18.529Z,99930.42
2017-05-12T23:31:51.193Z,99931.59
2017-05-12T23:34:17.656Z,99931.51
2017-05-12T23:36:49.700Z,99931.41
2017-05-12T23:39:16.565Z,99927.09
2017-05-12T23:41:48.011Z,99933.12
2017-05-12T23:44:14.534Z,99929.17
2017-05-12T23:46:41.979Z,99929.16
2017-05-12T23:49:08.813Z,99921.09
2017-05-12T23:51:35.168Z,99929.31
2017-05-12T23:54:06.977Z,99933.91
2017-05-12T23:56:38.717Z,99932.73
2017-05-12T23:59:10.655Z,99929.60
